Time;durP1;ratioP1;P1;durP2;ratioP2;P2;SDS_P1;SDS_P2;PMS_P1;PMS_P2;Temp;Humidity;BMP_temperature;BMP_pressure;BME280_temperature;BME280_humidity;BME280_pressure;Samples;Min_cycle;Max_cycle;Signal;HPM_P1;HPM_P2
2023/08/08 00:19:21;;;;;;;;;;;;;;;;;;1268170;22;20751;-77
2023/08/08 00:19:52;;;;;;;;;;;;;;;;;;1260191;22;19921;-79
2023/08/08 00:26:22;;;;;;;;;;;;;;;;;;1261184;22;20222;-77
2023/08/08 00:48:39;;;;;;;;;;;;;;;;;;1258470;23;20237;31
2023/08/08 00:53:50;;;;;;;;;;;;;;;;;;1288893;22;20711;-77
2023/08/08 01:03:40;;;;;;;;;;;;;;;;;;1285688;22;20600;-78
2023/08/08 01:18:46;;;;;;;;;;;;;;;;;;1258938;22;20451;-78
2023/08/08 01:36:49;;;;;;;;;;;;;;;;;;1285360;23;19999;-79
2023/08/08 01:40:32;;;;;;;;;;;;;;;;;;1284925;22;20736;-78
2023/08/08 01:41:02;;;;;;;;;;;;;;;;;;1271493;22;21242;-76
2023/08/08 01:41:32;;;;;;;;;;;;;;;;;;1291697;23;19914;-77
2023/08/08 01:42:02;;;;;;;;;;;;;;;;;;1292410;22;20232;-78
2023/08/08 01:42:32;;;;;;;;;;;;;;;;;;1277708;22;19926;-76
2023/08/08 01:43:03;;;;;;;;;;;;;;;;;;1291270;23;19978;-77
2023/08/08 01:43:34;;;;;;;;;;;;;;;;;;1287925;22;19927;-78
2023/08/08 01:44:05;;;;;;;;;;;;;;;;;;1290108;23;19930;-78
2023/08/08 01:44:35;;;;;;;;;;;;;;;;;;1291034;22;19978;-78
2023/08/08 01:45:05;;;;;;;;;;;;;;;;;;1290917;23;19903;-78
2023/08/08 01:45:36;;;;;;;;;;;;;;;;;;1291020;22;19910;-78
2023/08/08 01:46:07;;;;;;;;;;;;;;;;;;1290901;22;19903;-78
2023/08/08 01:46:38;;;;;;;;;;;;;;;;;;1291389;22;19957;-77
2023/08/08 01:47:08;;;;;;;;;;;;;;;;;;1292901;22;19910;-77
2023/08/08 01:47:38;;;;;;;;;;;;;;;;;;1297594;22;19999;-78
2023/08/08 01:48:09;;;;;;;;;;;;;;;;;;1297660;22;19952;-78
2023/08/08 01:48:39;;;;;;;;;;;;;;;;;;1297398;22;19937;-78
2023/08/08 01:49:09;;;;;;;;;;;;;;;;;;1297532;22;19914;-77
2023/08/08 01:49:39;;;;;;;;;;;;;;;;;;1297519;22;19953;-78
2023/08/08 01:50:09;;;;;;;;;;;;;;;;;;1297484;22;19986;-78
2023/08/08 01:50:40;;;;;;;;;;;;;;;;;;1297367;22;19993;-78
2023/08/08 01:51:10;;;;;;;;;;;;;;;;;;1297771;22;19910;-78
2023/08/08 01:51:40;;;;;;;;;;;;;;;;;;1296943;22;19904;-78
2023/08/08 01:52:48;;;;;;;;;;;;;;;;;;1247475;23;20016;-77
2023/08/08 01:53:58;;;;;;;;;;;;;;;;;;1288838;22;19927;-78
2023/08/08 01:54:28;;;;;;;;;;;;;;;;;;1304319;22;19985;-77
2023/08/08 01:54:59;;;;;;;;;;;;;;;;;;1303823;22;19903;-77
2023/08/08 01:55:29;;;;;;;;;;;;;;;;;;1304147;22;19985;-76
2023/08/08 01:55:59;;;;;;;;;;;;;;;;;;1303876;22;19909;-78
2023/08/08 01:56:29;;;;;;;;;;;;;;;;;;1304217;22;19903;-77
2023/08/08 01:57:00;;;;;;;;;;;;;;;;;;1303237;22;19914;-78
2023/08/08 01:57:30;;;;;;;;;;;;;;;;;;1297827;22;19910;-78
2023/08/08 01:58:00;;;;;;;;;;;;;;;;;;1297563;22;19904;-78
2023/08/08 01:58:30;;;;;;;;;;;;;;;;;;1297378;22;19965;-78
2023/08/08 01:59:01;;;;;;;;;;;;;;;;;;1297193;22;19903;-78
2023/08/08 01:59:31;;;;;;;;;;;;;;;;;;1297525;22;19903;-78
2023/08/08 02:00:04;;;;;;;;;;;;;;;;;;1297358;22;19903;-78
2023/08/08 02:00:34;;;;;;;;;;;;;;;;;;1297361;22;19903;-78
2023/08/08 02:01:04;;;;;;;;;;;;;;;;;;1297089;22;19974;-79
2023/08/08 02:01:34;;;;;;;;;;;;;;;;;;1297503;22;19907;-78
2023/08/08 02:02:05;;;;;;;;;;;;;;;;;;1296928;22;19913;-78
2023/08/08 02:02:35;;;;;;;;;;;;;;;;;;1297353;22;20263;-77
2023/08/08 02:03:05;;;;;;;;;;;;;;;;;;1297059;22;19961;-78
2023/08/08 02:03:36;;;;;;;;;;;;;;;;;;1297243;22;19910;-78
2023/08/08 02:04:06;;;;;;;;;;;;;;;;;;1290808;23;20420;-78
2023/08/08 02:04:36;;;;;;;;;;;;;;;;;;1291215;23;20284;-79
2023/08/08 02:05:06;;;;;;;;;;;;;;;;;;1296977;22;20428;-78
2023/08/08 02:05:36;;;;;;;;;;;;;;;;;;1297645;22;19903;-78
2023/08/08 02:06:07;;;;;;;;;;;;;;;;;;1297354;22;19903;-78
2023/08/08 02:06:37;;;;;;;;;;;;;;;;;;1297701;22;19903;-77
2023/08/08 02:07:07;;;;;;;;;;;;;;;;;;1287189;22;20020;-77
2023/08/08 02:07:37;;;;;;;;;;;;;;;;;;1286447;22;19938;-77
2023/08/08 02:10:42;;;;;;;;;;;;;;;;;;1265746;22;20625;-78
2023/08/08 02:12:24;;;;;;;;;;;;;;;;;;1269882;23;19925;-77
2023/08/08 02:12:54;;;;;;;;;;;;;;;;;;1269103;23;19916;-78
2023/08/08 02:13:25;;;;;;;;;;;;;;;;;;1266012;23;19991;-78
2023/08/08 02:17:08;;;;;;;;;;;;;;;;;;1263418;23;20534;-77
2023/08/08 02:22:50;;;;;;;;;;;;;;;;;;1258807;22;20206;-78
2023/08/08 02:24:38;;;;;;;;;;;;;;;;;;1271247;22;19929;-76
2023/08/08 02:28:19;;;;;;;;;;;;;;;;;;1262353;22;19921;-77
2023/08/08 02:31:09;;;;;;;;;;;;;;;;;;1264437;22;20443;-79
2023/08/08 02:34:57;;;;;;;;;;;;;;;;;;1292970;22;19927;-79
2023/08/08 02:35:27;;;;;;;;;;;;;;;;;;1298177;22;19935;-78
2023/08/08 02:35:57;;;;;;;;;;;;;;;;;;1297553;22;19904;-79
2023/08/08 02:36:28;;;;;;;;;;;;;;;;;;1297939;22;19942;-79
2023/08/08 02:36:58;;;;;;;;;;;;;;;;;;1297268;22;19903;-79
2023/08/08 02:38:08;;;;;;;;;;;;;;;;;;1291109;22;19919;-77
2023/08/08 02:38:38;;;;;;;;;;;;;;;;;;1291404;22;20332;-79
2023/08/08 02:39:09;;;;;;;;;;;;;;;;;;1291277;22;20240;-78
2023/08/08 02:39:39;;;;;;;;;;;;;;;;;;1291422;22;20333;-78
2023/08/08 02:40:09;;;;;;;;;;;;;;;;;;1291365;22;20629;-78
2023/08/08 02:40:39;;;;;;;;;;;;;;;;;;1291333;22;20280;-79
2023/08/08 02:41:40;;;;;;;;;;;;;;;;;;1277359;22;19980;-77
2023/08/08 02:42:44;;;;;;;;;;;;;;;;;;1285201;23;19930;-77
2023/08/08 02:43:16;;;;;;;;;;;;;;;;;;1284948;23;19911;-77
2023/08/08 02:43:46;;;;;;;;;;;;;;;;;;1285028;23;19911;-77
2023/08/08 02:44:17;;;;;;;;;;;;;;;;;;1284957;23;20351;-77
2023/08/08 02:44:47;;;;;;;;;;;;;;;;;;1284858;23;20379;-77
2023/08/08 02:45:17;;;;;;;;;;;;;;;;;;1284741;23;20352;-77
2023/08/08 02:45:47;;;;;;;;;;;;;;;;;;1284905;23;19914;-77
2023/08/08 02:46:18;;;;;;;;;;;;;;;;;;1285442;23;19908;-77
2023/08/08 02:46:48;;;;;;;;;;;;;;;;;;1285414;23;19908;-77
2023/08/08 02:51:41;;;;;;;;;;;;;;;;;;1285268;23;19930;-79
2023/08/08 03:00:21;;;;;;;;;;;;;;;;;;1261796;22;20587;-78
2023/08/08 03:00:52;;;;;;;;;;;;;;;;;;1269855;22;20692;-76
2023/08/08 03:01:22;;;;;;;;;;;;;;;;;;1265877;23;20332;-77
2023/08/08 03:01:52;;;;;;;;;;;;;;;;;;1265392;23;20310;-76
2023/08/08 03:02:23;;;;;;;;;;;;;;;;;;1270806;23;19958;-77
2023/08/08 03:02:53;;;;;;;;;;;;;;;;;;1271527;23;19908;-77
2023/08/08 03:06:25;;;;;;;;;;;;;;;;;;1276326;22;19913;-77
2023/08/08 03:06:55;;;;;;;;;;;;;;;;;;1303770;22;20351;-77
2023/08/08 03:07:25;;;;;;;;;;;;;;;;;;1310225;22;20231;-77
2023/08/08 03:07:56;;;;;;;;;;;;;;;;;;1310182;22;19956;-78
2023/08/08 03:08:27;;;;;;;;;;;;;;;;;;1310515;22;20236;-78
2023/08/08 03:08:57;;;;;;;;;;;;;;;;;;1310442;22;19910;-77
2023/08/08 03:09:28;;;;;;;;;;;;;;;;;;1311437;22;19903;-78
2023/08/08 03:09:58;;;;;;;;;;;;;;;;;;1310373;22;19903;-77
2023/08/08 03:10:28;;;;;;;;;;;;;;;;;;1310614;22;19932;-77
2023/08/08 03:10:58;;;;;;;;;;;;;;;;;;1310405;22;19903;-77
2023/08/08 03:11:28;;;;;;;;;;;;;;;;;;1310511;22;19952;-77
2023/08/08 03:11:59;;;;;;;;;;;;;;;;;;1303245;22;19907;-78
2023/08/08 03:12:29;;;;;;;;;;;;;;;;;;1303827;22;19903;-77
2023/08/08 03:12:59;;;;;;;;;;;;;;;;;;1296971;22;20343;-78
2023/08/08 03:13:29;;;;;;;;;;;;;;;;;;1297366;22;19903;-77
2023/08/08 03:14:00;;;;;;;;;;;;;;;;;;1303393;22;19910;-78
2023/08/08 03:14:30;;;;;;;;;;;;;;;;;;1303798;22;19903;-79
2023/08/08 03:15:00;;;;;;;;;;;;;;;;;;1303589;22;19903;-78
2023/08/08 03:15:30;;;;;;;;;;;;;;;;;;1303620;22;19907;-78
2023/08/08 03:16:01;;;;;;;;;;;;;;;;;;1303365;22;20336;-78
2023/08/08 03:16:31;;;;;;;;;;;;;;;;;;1297300;22;19912;-78
2023/08/08 03:17:01;;;;;;;;;;;;;;;;;;1303331;22;19911;-77
2023/08/08 03:17:31;;;;;;;;;;;;;;;;;;1303671;22;19999;-78
2023/08/08 03:18:02;;;;;;;;;;;;;;;;;;1303264;22;19973;-77
2023/08/08 03:18:32;;;;;;;;;;;;;;;;;;1310629;22;19985;-77
2023/08/08 03:19:02;;;;;;;;;;;;;;;;;;1310155;22;20239;-77
2023/08/08 03:19:32;;;;;;;;;;;;;;;;;;1310526;22;19903;-78
2023/08/08 03:20:05;;;;;;;;;;;;;;;;;;1303386;22;20301;-78
2023/08/08 03:20:35;;;;;;;;;;;;;;;;;;1303830;22;19903;-78
2023/08/08 03:21:06;;;;;;;;;;;;;;;;;;1303349;22;20312;-78
2023/08/08 03:21:36;;;;;;;;;;;;;;;;;;1304278;22;19934;-78
2023/08/08 03:22:46;;;;;;;;;;;;;;;;;;1284138;22;19966;-78
2023/08/08 03:23:16;;;;;;;;;;;;;;;;;;1284499;23;19912;-79
2023/08/08 03:23:47;;;;;;;;;;;;;;;;;;1276357;23;20656;-78
2023/08/08 03:24:17;;;;;;;;;;;;;;;;;;1259345;23;19984;-78
2023/08/08 03:24:47;;;;;;;;;;;;;;;;;;1259801;23;20022;-78
2023/08/08 03:27:11;;;;;;;;;;;;;;;;;;1276029;22;19925;-78
2023/08/08 03:27:42;;;;;;;;;;;;;;;;;;1268392;22;20279;-78
2023/08/08 03:28:12;;;;;;;;;;;;;;;;;;1265473;23;20245;-78
2023/08/08 03:28:42;;;;;;;;;;;;;;;;;;1265625;23;19905;-78
2023/08/08 03:29:12;;;;;;;;;;;;;;;;;;1265855;22;19970;-78
2023/08/08 03:29:43;;;;;;;;;;;;;;;;;;1265612;23;19905;-78
2023/08/08 03:30:13;;;;;;;;;;;;;;;;;;1265537;23;19905;-78
2023/08/08 03:30:43;;;;;;;;;;;;;;;;;;1265068;23;19905;-77
2023/08/08 03:31:13;;;;;;;;;;;;;;;;;;1265117;23;19914;-77
2023/08/08 03:31:43;;;;;;;;;;;;;;;;;;1265324;23;19994;-77
2023/08/08 03:32:14;;;;;;;;;;;;;;;;;;1264979;23;19905;-77
2023/08/08 03:32:44;;;;;;;;;;;;;;;;;;1265641;23;19905;-77
2023/08/08 03:33:14;;;;;;;;;;;;;;;;;;1265498;23;19912;-78
2023/08/08 03:33:44;;;;;;;;;;;;;;;;;;1265668;23;20000;-77
2023/08/08 03:34:15;;;;;;;;;;;;;;;;;;1264959;23;19962;-77
2023/08/08 03:34:45;;;;;;;;;;;;;;;;;;1265174;23;20003;-77
2023/08/08 03:35:15;;;;;;;;;;;;;;;;;;1265009;23;19979;-78
2023/08/08 03:35:45;;;;;;;;;;;;;;;;;;1265377;23;20421;-78
2023/08/08 03:36:15;;;;;;;;;;;;;;;;;;1264918;23;19988;-78
2023/08/08 03:36:46;;;;;;;;;;;;;;;;;;1265225;23;19932;-79
2023/08/08 03:37:16;;;;;;;;;;;;;;;;;;1259167;23;19906;-78
2023/08/08 03:43:30;;;;;;;;;;;;;;;;;;1290156;22;19952;-78
2023/08/08 03:44:02;;;;;;;;;;;;;;;;;;1285475;22;19929;-77
2023/08/08 03:47:00;;;;;;;;;;;;;;;;;;1290586;22;19931;-77
2023/08/08 03:48:10;;;;;;;;;;;;;;;;;;1172508;22;2671195;-75
2023/08/08 03:48:41;;;;;;;;;;;;;;;;;;1253606;23;19976;-75
2023/08/08 03:49:11;;;;;;;;;;;;;;;;;;1253550;23;19916;-78
2023/08/08 03:50:59;;;;;;;;;;;;;;;;;;1284969;23;20369;-78
2023/08/08 03:57:54;;;;;;;;;;;;;;;;;;1262325;22;20385;-79
2023/08/08 03:58:24;;;;;;;;;;;;;;;;;;1264578;22;19998;-78
2023/08/08 03:58:56;;;;;;;;;;;;;;;;;;1265478;23;19920;-79
2023/08/08 04:04:32;;;;;;;;;;;;;;;;;;1261990;22;19917;-77
2023/08/08 04:05:32;;;;;;;;;;;;;;;;;;1263942;22;19917;-78
2023/08/08 04:08:03;;;;;;;;;;;;;;;;;;1259076;22;20662;-78
2023/08/08 04:11:07;;;;;;;;;;;;;;;;;;1247846;23;20351;-76
2023/08/08 04:11:37;;;;;;;;;;;;;;;;;;1247947;23;19906;-77
2023/08/08 04:12:07;;;;;;;;;;;;;;;;;;1247345;23;19906;-78
2023/08/08 04:12:38;;;;;;;;;;;;;;;;;;1247815;23;20211;-77
2023/08/08 04:13:08;;;;;;;;;;;;;;;;;;1247050;23;19906;-77
2023/08/08 04:13:38;;;;;;;;;;;;;;;;;;1247750;23;19953;-77
2023/08/08 04:14:08;;;;;;;;;;;;;;;;;;1247007;23;19906;-77
2023/08/08 04:14:38;;;;;;;;;;;;;;;;;;1247617;23;19912;-78
2023/08/08 04:15:09;;;;;;;;;;;;;;;;;;1247039;23;19964;-76
2023/08/08 04:15:39;;;;;;;;;;;;;;;;;;1247600;23;20319;-77
2023/08/08 04:16:09;;;;;;;;;;;;;;;;;;1240850;23;19906;-77
2023/08/08 04:16:40;;;;;;;;;;;;;;;;;;1241339;23;19953;-77
2023/08/08 04:17:50;;;;;;;;;;;;;;;;;;1251757;23;20734;-76
2023/08/08 04:18:20;;;;;;;;;;;;;;;;;;1258593;23;19915;-77
2023/08/08 04:18:50;;;;;;;;;;;;;;;;;;1259402;23;19910;-77
2023/08/08 04:19:21;;;;;;;;;;;;;;;;;;1259165;23;19905;-78
2023/08/08 04:19:51;;;;;;;;;;;;;;;;;;1259917;23;19910;-78
2023/08/08 04:20:21;;;;;;;;;;;;;;;;;;1259114;23;19927;-78
2023/08/08 04:20:51;;;;;;;;;;;;;;;;;;1259551;23;19909;-78
2023/08/08 04:22:01;;;;;;;;;;;;;;;;;;1254830;22;19921;-80
2023/08/08 04:23:06;;;;;;;;;;;;;;;;;;1253251;23;19926;-79
2023/08/08 04:28:16;;;;;;;;;;;;;;;;;;1257947;23;20921;-79
2023/08/08 04:28:46;;;;;;;;;;;;;;;;;;1265470;22;19921;-77
2023/08/08 04:31:09;;;;;;;;;;;;;;;;;;1288709;22;19911;-78
2023/08/08 04:31:39;;;;;;;;;;;;;;;;;;1271692;22;19913;-77
2023/08/08 04:32:10;;;;;;;;;;;;;;;;;;1261421;23;19909;-79
2023/08/08 04:32:40;;;;;;;;;;;;;;;;;;1265399;23;20024;-80
2023/08/08 04:33:10;;;;;;;;;;;;;;;;;;1264814;23;19911;-79
2023/08/08 04:33:41;;;;;;;;;;;;;;;;;;1265373;23;19916;-79
2023/08/08 04:34:11;;;;;;;;;;;;;;;;;;1259010;23;19905;-79
2023/08/08 04:34:41;;;;;;;;;;;;;;;;;;1259621;23;19906;-79
2023/08/08 04:35:11;;;;;;;;;;;;;;;;;;1259273;23;20296;-79
2023/08/08 04:35:41;;;;;;;;;;;;;;;;;;1259786;23;19933;-79
2023/08/08 04:36:12;;;;;;;;;;;;;;;;;;1258866;23;20009;-78
2023/08/08 04:38:02;;;;;;;;;;;;;;;;;;1284587;22;20871;-78
2023/08/08 04:39:52;;;;;;;;;;;;;;;;;;1286621;22;20402;-80
2023/08/08 04:40:22;;;;;;;;;;;;;;;;;;1282824;22;19922;-79
2023/08/08 04:40:53;;;;;;;;;;;;;;;;;;1253524;23;19917;-79
2023/08/08 04:41:23;;;;;;;;;;;;;;;;;;1253701;23;20414;-79
2023/08/08 04:41:53;;;;;;;;;;;;;;;;;;1253331;23;19910;-80
2023/08/08 04:42:23;;;;;;;;;;;;;;;;;;1279079;22;20274;-80
2023/08/08 04:42:54;;;;;;;;;;;;;;;;;;1291451;23;19908;-80
2023/08/08 04:43:24;;;;;;;;;;;;;;;;;;1291556;23;19904;-79
2023/08/08 04:43:54;;;;;;;;;;;;;;;;;;1291518;23;19907;-79
2023/08/08 04:44:24;;;;;;;;;;;;;;;;;;1291568;23;19904;-79
2023/08/08 04:44:55;;;;;;;;;;;;;;;;;;1291487;23;19908;-80
2023/08/08 04:45:27;;;;;;;;;;;;;;;;;;1291466;23;19904;-79
2023/08/08 04:45:57;;;;;;;;;;;;;;;;;;1291337;22;19931;-79
2023/08/08 04:46:27;;;;;;;;;;;;;;;;;;1291549;23;20339;-79
2023/08/08 04:46:57;;;;;;;;;;;;;;;;;;1291216;22;20478;-79
2023/08/08 04:47:28;;;;;;;;;;;;;;;;;;1297741;22;20081;-79
2023/08/08 04:47:58;;;;;;;;;;;;;;;;;;1297476;22;19945;-81
2023/08/08 04:48:28;;;;;;;;;;;;;;;;;;1297279;22;19904;-79
2023/08/08 04:48:58;;;;;;;;;;;;;;;;;;1297164;22;19903;-79
2023/08/08 04:49:28;;;;;;;;;;;;;;;;;;1297719;22;19926;-79
2023/08/08 04:49:59;;;;;;;;;;;;;;;;;;1290913;22;20435;-80
2023/08/08 04:50:29;;;;;;;;;;;;;;;;;;1291292;22;20354;-80
2023/08/08 04:50:59;;;;;;;;;;;;;;;;;;1291006;23;20014;-79
2023/08/08 04:51:29;;;;;;;;;;;;;;;;;;1291707;23;19938;-79
2023/08/08 04:52:00;;;;;;;;;;;;;;;;;;1297290;22;19903;-79
2023/08/08 04:52:30;;;;;;;;;;;;;;;;;;1297836;22;20335;-79
2023/08/08 04:53:00;;;;;;;;;;;;;;;;;;1297360;22;20240;-79
2023/08/08 04:53:30;;;;;;;;;;;;;;;;;;1298038;22;20285;-78
2023/08/08 04:54:01;;;;;;;;;;;;;;;;;;1296649;22;20328;-78
2023/08/08 04:54:31;;;;;;;;;;;;;;;;;;1297174;22;19903;-78
2023/08/08 04:55:01;;;;;;;;;;;;;;;;;;1296742;22;19945;-80
2023/08/08 04:55:31;;;;;;;;;;;;;;;;;;1297508;22;19978;-79
2023/08/08 04:56:02;;;;;;;;;;;;;;;;;;1297890;22;19923;-79
2023/08/08 04:56:32;;;;;;;;;;;;;;;;;;1297858;22;19908;-80
2023/08/08 04:57:02;;;;;;;;;;;;;;;;;;1259016;22;19999;-80
2023/08/08 04:57:32;;;;;;;;;;;;;;;;;;1257677;22;19921;-79
2023/08/08 04:58:03;;;;;;;;;;;;;;;;;;1258802;23;19913;-78
2023/08/08 04:58:33;;;;;;;;;;;;;;;;;;1259429;23;20380;-78
2023/08/08 04:59:03;;;;;;;;;;;;;;;;;;1259006;23;19905;-77
2023/08/08 04:59:33;;;;;;;;;;;;;;;;;;1259689;23;19905;-77
2023/08/08 05:00:06;;;;;;;;;;;;;;;;;;1259077;23;19984;-77
2023/08/08 05:01:17;;;;;;;;;;;;;;;;;;1258388;22;19921;-78
2023/08/08 05:01:48;;;;;;;;;;;;;;;;;;1259756;23;19917;-79
2023/08/08 05:02:18;;;;;;;;;;;;;;;;;;1263253;23;19999;-78
2023/08/08 05:02:48;;;;;;;;;;;;;;;;;;1265692;23;20008;-78
2023/08/08 05:03:18;;;;;;;;;;;;;;;;;;1265198;23;19905;-78
2023/08/08 05:03:49;;;;;;;;;;;;;;;;;;1265557;23;19931;-78
2023/08/08 05:04:19;;;;;;;;;;;;;;;;;;1265271;23;19912;-77
2023/08/08 05:04:50;;;;;;;;;;;;;;;;;;1265641;23;20226;-79
2023/08/08 05:05:20;;;;;;;;;;;;;;;;;;1264872;23;20318;-79
2023/08/08 05:05:50;;;;;;;;;;;;;;;;;;1265324;23;19924;-78
2023/08/08 05:06:20;;;;;;;;;;;;;;;;;;1265049;23;19913;-79
2023/08/08 05:06:51;;;;;;;;;;;;;;;;;;1265233;23;20245;-78
2023/08/08 05:07:21;;;;;;;;;;;;;;;;;;1265449;23;20352;-78
2023/08/08 05:07:51;;;;;;;;;;;;;;;;;;1265173;23;19909;-78
2023/08/08 05:08:21;;;;;;;;;;;;;;;;;;1265149;23;19912;-79
2023/08/08 05:08:52;;;;;;;;;;;;;;;;;;1265032;23;20059;-79
2023/08/08 05:09:26;;;;;;;;;;;;;;;;;;1265272;23;19905;-79
2023/08/08 05:09:56;;;;;;;;;;;;;;;;;;1264872;23;19909;-79
2023/08/08 05:10:26;;;;;;;;;;;;;;;;;;1265443;23;19912;-79
2023/08/08 05:10:57;;;;;;;;;;;;;;;;;;1258677;23;19991;-80
2023/08/08 05:11:27;;;;;;;;;;;;;;;;;;1259507;23;19905;-79
2023/08/08 05:11:57;;;;;;;;;;;;;;;;;;1264879;23;20296;-79
2023/08/08 05:13:39;;;;;;;;;;;;;;;;;;1278721;22;19943;-79
2023/08/08 05:14:09;;;;;;;;;;;;;;;;;;1253209;23;19914;-78
2023/08/08 05:14:40;;;;;;;;;;;;;;;;;;1253735;23;19912;-79
2023/08/08 05:15:10;;;;;;;;;;;;;;;;;;1253305;23;19905;-78
2023/08/08 05:15:40;;;;;;;;;;;;;;;;;;1253637;23;19906;-77
2023/08/08 05:16:10;;;;;;;;;;;;;;;;;;1253215;23;19906;-78
2023/08/08 05:16:41;;;;;;;;;;;;;;;;;;1253730;23;19946;-78
2023/08/08 05:17:11;;;;;;;;;;;;;;;;;;1252560;23;19966;-78
2023/08/08 05:17:41;;;;;;;;;;;;;;;;;;1253678;23;20267;-78
2023/08/08 05:18:11;;;;;;;;;;;;;;;;;;1252485;23;19905;-78
2023/08/08 05:18:44;;;;;;;;;;;;;;;;;;1253283;23;19952;-78
2023/08/08 05:19:14;;;;;;;;;;;;;;;;;;1253228;23;19945;-77
2023/08/08 05:19:44;;;;;;;;;;;;;;;;;;1254038;23;19906;-79
2023/08/08 05:28:55;;;;;;;;;;;;;;;;;;1288942;22;19923;-78
2023/08/08 05:29:25;;;;;;;;;;;;;;;;;;1291378;23;19994;-79
2023/08/08 05:29:55;;;;;;;;;;;;;;;;;;1291567;23;19989;-78
2023/08/08 05:30:26;;;;;;;;;;;;;;;;;;1291758;23;19910;-80
2023/08/08 05:30:56;;;;;;;;;;;;;;;;;;1291284;23;19935;-78
2023/08/08 05:31:26;;;;;;;;;;;;;;;;;;1291617;23;20380;-79
2023/08/08 05:31:56;;;;;;;;;;;;;;;;;;1291337;23;19911;-79
2023/08/08 05:32:27;;;;;;;;;;;;;;;;;;1284615;22;19981;-80
2023/08/08 05:34:09;;;;;;;;;;;;;;;;;;1268809;23;19936;-78
2023/08/08 05:34:40;;;;;;;;;;;;;;;;;;1273330;22;19940;-75
2023/08/08 05:35:10;;;;;;;;;;;;;;;;;;1284512;23;19990;-76
2023/08/08 05:35:40;;;;;;;;;;;;;;;;;;1285322;23;19954;-77
2023/08/08 05:36:10;;;;;;;;;;;;;;;;;;1284440;23;19904;-77
2023/08/08 05:39:45;;;;;;;;;;;;;;;;;;1291719;23;20371;-78
2023/08/08 05:40:15;;;;;;;;;;;;;;;;;;1290952;22;19942;-76
2023/08/08 05:40:45;;;;;;;;;;;;;;;;;;1291426;23;19904;-78
2023/08/08 05:41:15;;;;;;;;;;;;;;;;;;1291494;23;20043;-80
2023/08/08 05:41:45;;;;;;;;;;;;;;;;;;1291486;23;20389;-79
2023/08/08 05:42:16;;;;;;;;;;;;;;;;;;1290981;22;20285;-78
2023/08/08 05:42:46;;;;;;;;;;;;;;;;;;1291623;23;19961;-79
2023/08/08 05:43:18;;;;;;;;;;;;;;;;;;1284878;23;19994;-79
2023/08/08 05:43:48;;;;;;;;;;;;;;;;;;1291643;23;20010;-77
2023/08/08 05:44:18;;;;;;;;;;;;;;;;;;1291146;23;19967;-78
2023/08/08 05:44:48;;;;;;;;;;;;;;;;;;1291348;23;20291;-78
2023/08/08 05:45:19;;;;;;;;;;;;;;;;;;1291192;23;20263;-77
2023/08/08 05:45:49;;;;;;;;;;;;;;;;;;1291379;23;19978;-77
2023/08/08 05:46:19;;;;;;;;;;;;;;;;;;1290855;23;19904;-78
2023/08/08 05:46:49;;;;;;;;;;;;;;;;;;1291298;23;20329;-78
2023/08/08 05:47:20;;;;;;;;;;;;;;;;;;1290629;22;19907;-78
2023/08/08 05:47:50;;;;;;;;;;;;;;;;;;1291078;23;19907;-78
2023/08/08 05:48:20;;;;;;;;;;;;;;;;;;1291152;23;19903;-81
2023/08/08 05:49:30;;;;;;;;;;;;;;;;;;1252447;23;19972;-79
2023/08/08 05:50:01;;;;;;;;;;;;;;;;;;1251253;23;20489;-79
2023/08/08 05:50:31;;;;;;;;;;;;;;;;;;1249517;23;20333;-79
2023/08/08 05:51:04;;;;;;;;;;;;;;;;;;1253683;23;19928;-79
2023/08/08 05:51:34;;;;;;;;;;;;;;;;;;1254174;23;19906;-79
2023/08/08 05:52:05;;;;;;;;;;;;;;;;;;1253457;23;19920;-77
2023/08/08 05:52:35;;;;;;;;;;;;;;;;;;1253894;23;19914;-79
2023/08/08 05:53:05;;;;;;;;;;;;;;;;;;1253724;23;19961;-78
2023/08/08 05:53:38;;;;;;;;;;;;;;;;;;1253370;23;19928;-78
2023/08/08 05:54:08;;;;;;;;;;;;;;;;;;1254118;23;19906;-78
2023/08/08 05:54:38;;;;;;;;;;;;;;;;;;1253632;23;20240;-79
2023/08/08 05:55:09;;;;;;;;;;;;;;;;;;1253767;23;19905;-78
2023/08/08 05:55:39;;;;;;;;;;;;;;;;;;1253576;23;20000;-78
2023/08/08 05:56:09;;;;;;;;;;;;;;;;;;1253724;23;20859;-78
2023/08/08 05:56:40;;;;;;;;;;;;;;;;;;1253523;23;20298;-77
2023/08/08 05:57:10;;;;;;;;;;;;;;;;;;1253378;23;19945;-77
2023/08/08 05:57:40;;;;;;;;;;;;;;;;;;1253101;23;19984;-78
2023/08/08 05:58:10;;;;;;;;;;;;;;;;;;1253184;23;20000;-77
2023/08/08 05:58:41;;;;;;;;;;;;;;;;;;1253058;23;20208;-77
2023/08/08 05:59:11;;;;;;;;;;;;;;;;;;1253521;23;19913;-77
2023/08/08 05:59:41;;;;;;;;;;;;;;;;;;1259081;23;19948;-77
2023/08/08 06:00:11;;;;;;;;;;;;;;;;;;1253542;23;19913;-78
2023/08/08 06:00:42;;;;;;;;;;;;;;;;;;1253265;23;19905;-78
2023/08/08 06:01:12;;;;;;;;;;;;;;;;;;1253816;23;19913;-78
2023/08/08 06:01:44;;;;;;;;;;;;;;;;;;1253293;23;19905;-80
2023/08/08 06:02:14;;;;;;;;;;;;;;;;;;1253868;23;19937;-80
2023/08/08 06:02:44;;;;;;;;;;;;;;;;;;1253302;23;19943;-77
2023/08/08 06:03:14;;;;;;;;;;;;;;;;;;1253757;23;19910;-78
2023/08/08 06:03:46;;;;;;;;;;;;;;;;;;1253419;23;19906;-78
2023/08/08 06:04:16;;;;;;;;;;;;;;;;;;1259814;23;20347;-78
2023/08/08 06:04:47;;;;;;;;;;;;;;;;;;1259189;23;19921;-79
2023/08/08 06:05:17;;;;;;;;;;;;;;;;;;1259906;23;19913;-79
2023/08/08 06:05:48;;;;;;;;;;;;;;;;;;1259575;23;19945;-79
2023/08/08 06:06:18;;;;;;;;;;;;;;;;;;1254116;23;20314;-78
2023/08/08 06:06:49;;;;;;;;;;;;;;;;;;1253864;23;19949;-79
2023/08/08 06:07:19;;;;;;;;;;;;;;;;;;1253804;23;19996;-79
2023/08/08 06:07:49;;;;;;;;;;;;;;;;;;1253789;23;19960;-79
2023/08/08 06:08:19;;;;;;;;;;;;;;;;;;1254097;23;20369;-79
2023/08/08 06:08:50;;;;;;;;;;;;;;;;;;1253679;23;19909;-79
2023/08/08 06:09:20;;;;;;;;;;;;;;;;;;1248211;23;19978;-79
2023/08/08 06:09:50;;;;;;;;;;;;;;;;;;1247636;23;19993;-79
2023/08/08 06:10:21;;;;;;;;;;;;;;;;;;1253758;23;20281;-78
2023/08/08 06:10:51;;;;;;;;;;;;;;;;;;1259075;23;20004;-79
2023/08/08 06:12:36;;;;;;;;;;;;;;;;;;1292850;22;19932;-80
2023/08/08 06:13:06;;;;;;;;;;;;;;;;;;1287402;22;19935;-79
2023/08/08 06:14:45;;;;;;;;;;;;;;;;;;1282110;22;19965;-79
2023/08/08 06:17:15;;;;;;;;;;;;;;;;;;1289720;22;19934;-79
2023/08/08 06:19:40;;;;;;;;;;;;;;;;;;1277491;22;20974;-78
2023/08/08 06:21:30;;;;;;;;;;;;;;;;;;1282105;22;20260;-77
2023/08/08 06:22:00;;;;;;;;;;;;;;;;;;1292000;22;19907;-77
2023/08/08 06:22:31;;;;;;;;;;;;;;;;;;1298090;22;20323;-77
2023/08/08 06:23:01;;;;;;;;;;;;;;;;;;1297466;22;19904;-77
2023/08/08 06:23:31;;;;;;;;;;;;;;;;;;1297965;22;19909;-77
2023/08/08 06:24:01;;;;;;;;;;;;;;;;;;1297719;22;19903;-77
2023/08/08 06:24:32;;;;;;;;;;;;;;;;;;1298048;22;19904;-78
2023/08/08 06:25:03;;;;;;;;;;;;;;;;;;1297556;22;19911;-78
2023/08/08 06:25:33;;;;;;;;;;;;;;;;;;1297370;22;19903;-78
2023/08/08 06:26:03;;;;;;;;;;;;;;;;;;1297433;22;20355;-77
2023/08/08 06:26:34;;;;;;;;;;;;;;;;;;1297287;22;19937;-78
2023/08/08 06:27:04;;;;;;;;;;;;;;;;;;1297243;22;19910;-78
2023/08/08 06:27:34;;;;;;;;;;;;;;;;;;1262149;22;19906;-77
2023/08/08 06:29:24;;;;;;;;;;;;;;;;;;1260199;22;19940;-78
2023/08/08 06:31:50;;;;;;;;;;;;;;;;;;1291448;23;19970;-77
2023/08/08 06:32:20;;;;;;;;;;;;;;;;;;1292800;22;20309;-76
2023/08/08 06:32:50;;;;;;;;;;;;;;;;;;1297049;22;19922;-77
2023/08/08 06:34:01;;;;;;;;;;;;;;;;;;1265042;22;19912;-78
2023/08/08 06:34:31;;;;;;;;;;;;;;;;;;1265964;23;19912;-79
2023/08/08 06:35:01;;;;;;;;;;;;;;;;;;1265090;23;19923;-79
2023/08/08 06:35:32;;;;;;;;;;;;;;;;;;1266020;23;19913;-80
2023/08/08 06:36:03;;;;;;;;;;;;;;;;;;1259020;23;19913;-79
2023/08/08 06:36:33;;;;;;;;;;;;;;;;;;1259106;23;19988;-78
2023/08/08 06:37:03;;;;;;;;;;;;;;;;;;1259385;23;19912;-79
2023/08/08 06:38:54;;;;;;;;;;;;;;;;;;1258059;22;20535;-77
2023/08/08 06:39:24;;;;;;;;;;;;;;;;;;1291643;23;19950;-77
2023/08/08 06:39:55;;;;;;;;;;;;;;;;;;1290888;23;19907;-78
2023/08/08 06:40:25;;;;;;;;;;;;;;;;;;1291884;23;19904;-78
2023/08/08 06:40:56;;;;;;;;;;;;;;;;;;1291088;23;20001;-79
2023/08/08 06:41:26;;;;;;;;;;;;;;;;;;1284814;23;19903;-78
2023/08/08 06:41:56;;;;;;;;;;;;;;;;;;1284122;23;19914;-78
2023/08/08 06:42:27;;;;;;;;;;;;;;;;;;1284353;23;19908;-78
2023/08/08 06:42:57;;;;;;;;;;;;;;;;;;1284079;23;19935;-78
2023/08/08 06:43:28;;;;;;;;;;;;;;;;;;1284817;23;20045;-79
2023/08/08 06:43:58;;;;;;;;;;;;;;;;;;1277689;23;19904;-79
2023/08/08 06:44:28;;;;;;;;;;;;;;;;;;1278865;23;19904;-78
2023/08/08 06:44:58;;;;;;;;;;;;;;;;;;1278126;23;19913;-79
2023/08/08 06:45:29;;;;;;;;;;;;;;;;;;1284770;23;19904;-78
2023/08/08 06:46:00;;;;;;;;;;;;;;;;;;1284176;23;19904;-78
2023/08/08 06:46:30;;;;;;;;;;;;;;;;;;1284942;23;20317;-79
2023/08/08 06:47:00;;;;;;;;;;;;;;;;;;1284396;23;19916;-78
2023/08/08 06:47:31;;;;;;;;;;;;;;;;;;1284811;23;19947;-78
2023/08/08 06:48:01;;;;;;;;;;;;;;;;;;1284327;23;19904;-79
2023/08/08 06:48:31;;;;;;;;;;;;;;;;;;1284623;23;19911;-78
2023/08/08 06:49:02;;;;;;;;;;;;;;;;;;1284405;23;19904;-79
2023/08/08 06:49:32;;;;;;;;;;;;;;;;;;1268039;22;20946;-79
2023/08/08 06:50:36;;;;;;;;;;;;;;;;;;1276344;22;19973;-79
2023/08/08 06:51:07;;;;;;;;;;;;;;;;;;1282848;22;19966;-79
2023/08/08 06:51:37;;;;;;;;;;;;;;;;;;1258186;23;19933;-78
2023/08/08 06:52:07;;;;;;;;;;;;;;;;;;1253129;23;19974;-78
2023/08/08 06:52:37;;;;;;;;;;;;;;;;;;1253455;23;19906;-78
2023/08/08 06:53:08;;;;;;;;;;;;;;;;;;1253661;23;19905;-79
2023/08/08 06:53:38;;;;;;;;;;;;;;;;;;1253686;23;19906;-76